Lower Ranchito, New Mexico
Current Conditions -  °F | °C
As of 7:35 AM on Friday 31 Oct 2014 (Local Time) from KSKX Reporting Station
Clear Clear  
Wind Chill: -4°   Ceiling: Unl
Heat Index: -4°   Visibility: 10mi
Dew Point: -12°   Wind: 0mph
Humidity: 54%   Direction: NA
Pressure: 30.46"   Gusts: NA
Location:  36.6959°N, 106.135°W
Report Text: KSKX 311335Z AUTO 00000KT 10SM CLR M04/M12 A3046 RMK AO1
Loading
Personal Weather Stations






























Interactive Weather Map
Tropical Storm Tracking
New forecast layout! Learn more

10-Day Weather Forecast

Advertisements
Track Severe Weather on mobile